KDEH/DEH METAR and TAF weather

Enter ICAO airport designator
Station Type Date Time Source
KDEH METAR 2021/05/12 02:35 UTC NOAA

KDEH 120235Z AUTO 00000KT 10SM 10/M06 A3038 RMK AO2


Station Type Date Time Source
KDEH Decoded METAR 2021/05/12 02:35 UTC NOAA

Decorah, IA, United States (KDEH) 43-17N 091-44W
May 11, 2021 - 10:35 PM EDT / 2021.05.12 0235 UTC
Wind: Calm:0
Visibility: 10 mile(s):0
Temperature: 50 F (10 C)
Dew Point: 21 F (-6 C)
Relative Humidity: 31%
Pressure (altimeter): 30.38 in. Hg (1028 hPa)
ob: KDEH 120235Z AUTO 00000KT 10SM 10/M06 A3038 RMK AO2
cycle: 2

Station Type Date Time Source
KDEH TAF UTC NOAA

Error!

Example: see airport list